sensor_id;sensor_type;location;lat;lon;timestamp;temperature;humidity
20977;DHT22;10647;51.016;3.720;2022-12-07T00:02:09;7.70;99.90
20977;DHT22;10647;51.016;3.720;2022-12-07T00:04:37;7.70;99.90
20977;DHT22;10647;51.016;3.720;2022-12-07T00:07:23;7.70;99.90
20977;DHT22;10647;51.016;3.720;2022-12-07T00:09:55;7.70;99.90
20977;DHT22;10647;51.016;3.720;2022-12-07T00:15:04;7.70;99.90
20977;DHT22;10647;51.016;3.720;2022-12-07T00:17:35;7.70;99.90
20977;DHT22;10647;51.016;3.720;2022-12-07T00:20:02;7.70;99.90
20977;DHT22;10647;51.016;3.720;2022-12-07T00:22:30;7.80;99.90
20977;DHT22;10647;51.016;3.720;2022-12-07T00:24:58;7.80;99.90
20977;DHT22;10647;51.016;3.720;2022-12-07T00:27:28;7.80;99.90
20977;DHT22;10647;51.016;3.720;2022-12-07T00:29:58;7.80;99.90
20977;DHT22;10647;51.016;3.720;2022-12-07T00:32:26;7.80;99.90
20977;DHT22;10647;51.016;3.720;2022-12-07T00:34:57;7.90;99.90
20977;DHT22;10647;51.016;3.720;2022-12-07T00:37:25;7.90;99.90
20977;DHT22;10647;51.016;3.720;2022-12-07T00:39:53;7.90;99.90
20977;DHT22;10647;51.016;3.720;2022-12-07T00:42:21;7.90;99.90
20977;DHT22;10647;51.016;3.720;2022-12-07T00:44:54;7.80;99.90
20977;DHT22;10647;51.016;3.720;2022-12-07T00:47:23;7.70;99.90
20977;DHT22;10647;51.016;3.720;2022-12-07T00:49:51;7.60;99.90
20977;DHT22;10647;51.016;3.720;2022-12-07T00:52:18;7.50;99.90
20977;DHT22;10647;51.016;3.720;2022-12-07T00:54:46;7.50;99.90
20977;DHT22;10647;51.016;3.720;2022-12-07T00:57:19;7.40;99.90
20977;DHT22;10647;51.016;3.720;2022-12-07T00:59:47;7.40;99.90
20977;DHT22;10647;51.016;3.720;2022-12-07T01:02:15;7.40;99.90
20977;DHT22;10647;51.016;3.720;2022-12-07T01:04:42;7.20;99.90
20977;DHT22;10647;51.016;3.720;2022-12-07T01:07:10;7.20;99.90
20977;DHT22;10647;51.016;3.720;2022-12-07T01:09:38;7.20;99.90
20977;DHT22;10647;51.016;3.720;2022-12-07T01:12:06;7.10;99.90
20977;DHT22;10647;51.016;3.720;2022-12-07T01:14:33;7.10;99.90
20977;DHT22;10647;51.016;3.720;2022-12-07T01:17:02;7.10;99.90
20977;DHT22;10647;51.016;3.720;2022-12-07T01:19:30;7.10;99.90
20977;DHT22;10647;51.016;3.720;2022-12-07T01:21:57;7.10;99.90
20977;DHT22;10647;51.016;3.720;2022-12-07T01:24:25;7.10;99.90
20977;DHT22;10647;51.016;3.720;2022-12-07T01:26:53;7.00;99.90
20977;DHT22;10647;51.016;3.720;2022-12-07T01:29:20;7.00;99.90
20977;DHT22;10647;51.016;3.720;2022-12-07T01:31:49;6.90;99.90
20977;DHT22;10647;51.016;3.720;2022-12-07T01:34:16;6.80;99.90
20977;DHT22;10647;51.016;3.720;2022-12-07T01:36:46;6.80;99.90
20977;DHT22;10647;51.016;3.720;2022-12-07T01:39:13;6.80;99.90
20977;DHT22;10647;51.016;3.720;2022-12-07T01:41:41;6.80;99.90
20977;DHT22;10647;51.016;3.720;2022-12-07T01:44:26;6.90;99.90
20977;DHT22;10647;51.016;3.720;2022-12-07T01:47:03;6.90;99.90
20977;DHT22;10647;51.016;3.720;2022-12-07T01:49:45;7.00;99.90
20977;DHT22;10647;51.016;3.720;2022-12-07T01:52:28;7.10;99.90
20977;DHT22;10647;51.016;3.720;2022-12-07T01:55:13;7.10;99.90
20977;DHT22;10647;51.016;3.720;2022-12-07T02:00:31;6.90;99.90
20977;DHT22;10647;51.016;3.720;2022-12-07T02:03:11;6.80;99.90
20977;DHT22;10647;51.016;3.720;2022-12-07T02:05:41;6.70;99.90
20977;DHT22;10647;51.016;3.720;2022-12-07T02:08:15;6.60;99.90
20977;DHT22;10647;51.016;3.720;2022-12-07T02:10:43;6.60;99.90
20977;DHT22;10647;51.016;3.720;2022-12-07T02:13:19;6.50;99.90
20977;DHT22;10647;51.016;3.720;2022-12-07T02:21:57;6.30;99.90
20977;DHT22;10647;51.016;3.720;2022-12-07T02:27:46;6.30;99.90
20977;DHT22;10647;51.016;3.720;2022-12-07T02:30:23;6.40;99.90
20977;DHT22;10647;51.016;3.720;2022-12-07T02:36:02;6.40;99.90
20977;DHT22;10647;51.016;3.720;2022-12-07T02:38:52;6.30;99.90
20977;DHT22;10647;51.016;3.720;2022-12-07T02:41:27;6.30;99.90
20977;DHT22;10647;51.016;3.720;2022-12-07T02:44:17;6.30;99.90
20977;DHT22;10647;51.016;3.720;2022-12-07T02:46:57;6.30;99.90
20977;DHT22;10647;51.016;3.720;2022-12-07T02:52:13;6.60;99.90
20977;DHT22;10647;51.016;3.720;2022-12-07T02:54:40;6.50;99.90
20977;DHT22;10647;51.016;3.720;2022-12-07T02:57:26;6.60;99.90
20977;DHT22;10647;51.016;3.720;2022-12-07T03:00:10;6.70;99.90
20977;DHT22;10647;51.016;3.720;2022-12-07T03:03:06;6.70;99.90
20977;DHT22;10647;51.016;3.720;2022-12-07T03:05:58;6.70;99.90
20977;DHT22;10647;51.016;3.720;2022-12-07T03:08:38;6.70;99.90
20977;DHT22;10647;51.016;3.720;2022-12-07T03:11:25;6.80;99.90
20977;DHT22;10647;51.016;3.720;2022-12-07T03:14:02;6.80;99.90
20977;DHT22;10647;51.016;3.720;2022-12-07T03:16:59;6.80;99.90
20977;DHT22;10647;51.016;3.720;2022-12-07T03:19:27;6.90;99.90
20977;DHT22;10647;51.016;3.720;2022-12-07T03:22:03;6.90;99.90
20977;DHT22;10647;51.016;3.720;2022-12-07T03:24:57;6.90;99.90
20977;DHT22;10647;51.016;3.720;2022-12-07T03:28:11;6.80;99.90
20977;DHT22;10647;51.016;3.720;2022-12-07T03:30:02;6.80;99.90
20977;DHT22;10647;51.016;3.720;2022-12-07T03:32:28;6.80;99.90
20977;DHT22;10647;51.016;3.720;2022-12-07T03:38:18;6.70;99.90
20977;DHT22;10647;51.016;3.720;2022-12-07T03:43:42;6.50;99.90
20977;DHT22;10647;51.016;3.720;2022-12-07T03:55:23;6.20;99.90
20977;DHT22;10647;51.016;3.720;2022-12-07T03:57:54;6.20;99.90
20977;DHT22;10647;51.016;3.720;2022-12-07T04:00:23;6.20;99.90
20977;DHT22;10647;51.016;3.720;2022-12-07T04:02:52;6.30;99.90
20977;DHT22;10647;51.016;3.720;2022-12-07T04:05:20;6.20;99.90
20977;DHT22;10647;51.016;3.720;2022-12-07T04:07:53;6.10;99.90
20977;DHT22;10647;51.016;3.720;2022-12-07T04:10:21;6.10;99.90
20977;DHT22;10647;51.016;3.720;2022-12-07T04:12:48;6.10;99.90
20977;DHT22;10647;51.016;3.720;2022-12-07T04:15:16;6.10;99.90
20977;DHT22;10647;51.016;3.720;2022-12-07T04:17:43;6.10;99.90
20977;DHT22;10647;51.016;3.720;2022-12-07T04:20:17;6.00;99.90
20977;DHT22;10647;51.016;3.720;2022-12-07T04:22:47;6.10;99.90
20977;DHT22;10647;51.016;3.720;2022-12-07T04:25:15;6.20;99.90
20977;DHT22;10647;51.016;3.720;2022-12-07T04:27:43;6.20;99.90
20977;DHT22;10647;51.016;3.720;2022-12-07T04:30:11;6.20;99.90
20977;DHT22;10647;51.016;3.720;2022-12-07T04:32:40;6.20;99.90
20977;DHT22;10647;51.016;3.720;2022-12-07T04:35:08;6.30;99.90
20977;DHT22;10647;51.016;3.720;2022-12-07T04:37:36;6.30;99.90
20977;DHT22;10647;51.016;3.720;2022-12-07T04:40:08;6.30;99.90
20977;DHT22;10647;51.016;3.720;2022-12-07T04:42:38;6.30;99.90
20977;DHT22;10647;51.016;3.720;2022-12-07T04:45:08;6.30;99.90
20977;DHT22;10647;51.016;3.720;2022-12-07T04:47:36;6.30;99.90
20977;DHT22;10647;51.016;3.720;2022-12-07T04:50:04;6.30;99.90
20977;DHT22;10647;51.016;3.720;2022-12-07T04:52:31;6.30;99.90
20977;DHT22;10647;51.016;3.720;2022-12-07T04:55:02;6.40;99.90
20977;DHT22;10647;51.016;3.720;2022-12-07T04:57:32;6.50;99.90
20977;DHT22;10647;51.016;3.720;2022-12-07T04:59:59;6.60;99.90
20977;DHT22;10647;51.016;3.720;2022-12-07T05:02:27;6.50;99.90
20977;DHT22;10647;51.016;3.720;2022-12-07T05:05:01;6.60;99.90
20977;DHT22;10647;51.016;3.720;2022-12-07T05:07:28;6.70;99.90
20977;DHT22;10647;51.016;3.720;2022-12-07T05:09:56;6.70;99.90
20977;DHT22;10647;51.016;3.720;2022-12-07T05:12:24;6.70;99.90
20977;DHT22;10647;51.016;3.720;2022-12-07T05:15:11;6.70;99.90
20977;DHT22;10647;51.016;3.720;2022-12-07T05:17:39;6.70;99.90
20977;DHT22;10647;51.016;3.720;2022-12-07T05:20:07;6.60;99.90
20977;DHT22;10647;51.016;3.720;2022-12-07T05:22:38;6.50;99.90
20977;DHT22;10647;51.016;3.720;2022-12-07T05:25:05;6.60;99.90
20977;DHT22;10647;51.016;3.720;2022-12-07T05:27:39;6.60;99.90
20977;DHT22;10647;51.016;3.720;2022-12-07T05:30:26;6.60;99.90
20977;DHT22;10647;51.016;3.720;2022-12-07T05:32:54;6.50;99.90
20977;DHT22;10647;51.016;3.720;2022-12-07T05:35:22;6.40;99.90
20977;DHT22;10647;51.016;3.720;2022-12-07T05:37:50;6.30;99.90
20977;DHT22;10647;51.016;3.720;2022-12-07T05:40:17;6.30;99.90
20977;DHT22;10647;51.016;3.720;2022-12-07T05:42:48;6.20;99.90
20977;DHT22;10647;51.016;3.720;2022-12-07T05:45:16;6.10;99.90
20977;DHT22;10647;51.016;3.720;2022-12-07T05:47:43;6.10;99.90
20977;DHT22;10647;51.016;3.720;2022-12-07T05:50:11;6.00;99.90
20977;DHT22;10647;51.016;3.720;2022-12-07T05:52:38;6.00;99.90
20977;DHT22;10647;51.016;3.720;2022-12-07T05:55:11;5.90;99.90
20977;DHT22;10647;51.016;3.720;2022-12-07T05:57:39;5.90;99.90
20977;DHT22;10647;51.016;3.720;2022-12-07T06:00:09;5.80;99.90
20977;DHT22;10647;51.016;3.720;2022-12-07T06:02:40;5.90;99.90
20977;DHT22;10647;51.016;3.720;2022-12-07T06:05:07;5.80;99.90
20977;DHT22;10647;51.016;3.720;2022-12-07T06:07:36;5.90;99.90
20977;DHT22;10647;51.016;3.720;2022-12-07T06:10:04;5.90;99.90
20977;DHT22;10647;51.016;3.720;2022-12-07T06:12:31;6.00;99.90
20977;DHT22;10647;51.016;3.720;2022-12-07T06:15:02;6.00;99.90
20977;DHT22;10647;51.016;3.720;2022-12-07T06:17:29;6.00;99.90
20977;DHT22;10647;51.016;3.720;2022-12-07T06:20:03;6.10;99.90
20977;DHT22;10647;51.016;3.720;2022-12-07T06:22:32;6.10;99.90
20977;DHT22;10647;51.016;3.720;2022-12-07T06:25:00;6.20;99.90
20977;DHT22;10647;51.016;3.720;2022-12-07T06:27:28;6.20;99.90
20977;DHT22;10647;51.016;3.720;2022-12-07T06:29:55;6.10;99.90
20977;DHT22;10647;51.016;3.720;2022-12-07T06:32:26;6.00;99.90
20977;DHT22;10647;51.016;3.720;2022-12-07T06:34:54;6.00;99.90
20977;DHT22;10647;51.016;3.720;2022-12-07T06:37:22;6.00;99.90
20977;DHT22;10647;51.016;3.720;2022-12-07T06:39:49;6.00;99.90
20977;DHT22;10647;51.016;3.720;2022-12-07T06:42:17;6.10;99.90
20977;DHT22;10647;51.016;3.720;2022-12-07T06:44:44;6.20;99.90
20977;DHT22;10647;51.016;3.720;2022-12-07T06:47:12;6.20;99.90
20977;DHT22;10647;51.016;3.720;2022-12-07T06:49:39;6.20;99.90
20977;DHT22;10647;51.016;3.720;2022-12-07T06:52:07;6.30;99.90
20977;DHT22;10647;51.016;3.720;2022-12-07T06:54:35;6.40;99.90
20977;DHT22;10647;51.016;3.720;2022-12-07T06:57:02;6.50;99.90
20977;DHT22;10647;51.016;3.720;2022-12-07T06:59:30;6.50;99.90
20977;DHT22;10647;51.016;3.720;2022-12-07T07:01:59;6.50;99.90
20977;DHT22;10647;51.016;3.720;2022-12-07T07:04:27;6.60;99.90
20977;DHT22;10647;51.016;3.720;2022-12-07T07:06:54;6.60;99.90
20977;DHT22;10647;51.016;3.720;2022-12-07T07:09:22;6.60;99.90
20977;DHT22;10647;51.016;3.720;2022-12-07T07:11:49;6.60;99.90
20977;DHT22;10647;51.016;3.720;2022-12-07T07:14:17;6.60;99.90
20977;DHT22;10647;51.016;3.720;2022-12-07T07:16:45;6.60;99.90
20977;DHT22;10647;51.016;3.720;2022-12-07T07:19:13;6.60;99.90
20977;DHT22;10647;51.016;3.720;2022-12-07T07:21:40;6.60;99.90
20977;DHT22;10647;51.016;3.720;2022-12-07T07:24:08;6.60;99.90
20977;DHT22;10647;51.016;3.720;2022-12-07T07:26:35;6.60;99.90
20977;DHT22;10647;51.016;3.720;2022-12-07T07:29:03;6.60;99.90
20977;DHT22;10647;51.016;3.720;2022-12-07T07:31:30;6.60;99.90
20977;DHT22;10647;51.016;3.720;2022-12-07T07:33:58;6.60;99.90
20977;DHT22;10647;51.016;3.720;2022-12-07T07:36:25;6.60;99.90
20977;DHT22;10647;51.016;3.720;2022-12-07T07:38:53;6.60;99.90
20977;DHT22;10647;51.016;3.720;2022-12-07T07:41:21;6.70;99.90
20977;DHT22;10647;51.016;3.720;2022-12-07T07:43:49;6.70;99.90
20977;DHT22;10647;51.016;3.720;2022-12-07T07:46:16;6.70;99.90
20977;DHT22;10647;51.016;3.720;2022-12-07T07:48:44;6.70;99.90
20977;DHT22;10647;51.016;3.720;2022-12-07T07:51:11;6.70;99.90
20977;DHT22;10647;51.016;3.720;2022-12-07T07:53:39;6.70;99.90
20977;DHT22;10647;51.016;3.720;2022-12-07T07:56:06;6.70;99.90
20977;DHT22;10647;51.016;3.720;2022-12-07T07:58:34;6.70;99.90
20977;DHT22;10647;51.016;3.720;2022-12-07T08:01:06;6.80;99.90
20977;DHT22;10647;51.016;3.720;2022-12-07T08:03:35;6.80;99.90
20977;DHT22;10647;51.016;3.720;2022-12-07T08:06:03;6.70;99.90
20977;DHT22;10647;51.016;3.720;2022-12-07T08:08:31;6.70;99.90
20977;DHT22;10647;51.016;3.720;2022-12-07T08:10:59;6.70;99.90
20977;DHT22;10647;51.016;3.720;2022-12-07T08:13:32;6.70;99.90
20977;DHT22;10647;51.016;3.720;2022-12-07T08:16:05;6.80;99.90
20977;DHT22;10647;51.016;3.720;2022-12-07T08:18:37;6.80;99.90
20977;DHT22;10647;51.016;3.720;2022-12-07T08:21:07;6.90;99.90
20977;DHT22;10647;51.016;3.720;2022-12-07T08:23:42;7.00;99.90
20977;DHT22;10647;51.016;3.720;2022-12-07T08:26:12;7.00;99.90
20977;DHT22;10647;51.016;3.720;2022-12-07T08:28:40;7.10;99.90
20977;DHT22;10647;51.016;3.720;2022-12-07T08:31:13;7.10;99.90
20977;DHT22;10647;51.016;3.720;2022-12-07T08:33:41;7.10;99.90
20977;DHT22;10647;51.016;3.720;2022-12-07T08:36:10;7.10;99.90
20977;DHT22;10647;51.016;3.720;2022-12-07T08:38:40;7.20;99.90
20977;DHT22;10647;51.016;3.720;2022-12-07T08:41:08;7.10;99.90
20977;DHT22;10647;51.016;3.720;2022-12-07T08:43:36;7.10;99.90
20977;DHT22;10647;51.016;3.720;2022-12-07T08:46:17;7.20;99.90
20977;DHT22;10647;51.016;3.720;2022-12-07T08:48:49;7.30;99.90
20977;DHT22;10647;51.016;3.720;2022-12-07T08:51:10;7.50;99.90
20977;DHT22;10647;51.016;3.720;2022-12-07T08:53:38;7.70;99.90
20977;DHT22;10647;51.016;3.720;2022-12-07T08:56:07;7.90;99.90
20977;DHT22;10647;51.016;3.720;2022-12-07T08:58:35;8.10;99.90
20977;DHT22;10647;51.016;3.720;2022-12-07T09:01:04;8.20;99.90
20977;DHT22;10647;51.016;3.720;2022-12-07T09:03:32;8.40;99.90
20977;DHT22;10647;51.016;3.720;2022-12-07T09:06:00;8.40;99.90
20977;DHT22;10647;51.016;3.720;2022-12-07T09:08:33;8.40;99.90
20977;DHT22;10647;51.016;3.720;2022-12-07T09:11:01;8.50;99.90
20977;DHT22;10647;51.016;3.720;2022-12-07T09:13:28;8.50;99.90
20977;DHT22;10647;51.016;3.720;2022-12-07T09:15:56;8.70;99.90
20977;DHT22;10647;51.016;3.720;2022-12-07T09:18:24;8.80;99.90
20977;DHT22;10647;51.016;3.720;2022-12-07T09:20:51;8.80;99.90
20977;DHT22;10647;51.016;3.720;2022-12-07T09:23:19;8.90;99.90
20977;DHT22;10647;51.016;3.720;2022-12-07T09:25:46;8.90;99.90
20977;DHT22;10647;51.016;3.720;2022-12-07T09:28:14;9.00;99.90
20977;DHT22;10647;51.016;3.720;2022-12-07T09:33:36;9.10;99.90
20977;DHT22;10647;51.016;3.720;2022-12-07T09:36:04;9.00;99.90
20977;DHT22;10647;51.016;3.720;2022-12-07T09:38:32;8.90;99.90
20977;DHT22;10647;51.016;3.720;2022-12-07T09:41:04;8.80;99.90
20977;DHT22;10647;51.016;3.720;2022-12-07T09:43:34;8.70;99.90
20977;DHT22;10647;51.016;3.720;2022-12-07T09:46:03;8.60;99.90
20977;DHT22;10647;51.016;3.720;2022-12-07T09:51:23;8.40;99.90
20977;DHT22;10647;51.016;3.720;2022-12-07T09:53:53;8.30;99.90
20977;DHT22;10647;51.016;3.720;2022-12-07T09:56:22;8.30;99.90
20977;DHT22;10647;51.016;3.720;2022-12-07T09:58:55;8.30;99.90
20977;DHT22;10647;51.016;3.720;2022-12-07T10:01:22;8.40;99.90
20977;DHT22;10647;51.016;3.720;2022-12-07T10:03:52;8.50;99.90
20977;DHT22;10647;51.016;3.720;2022-12-07T10:06:20;8.60;99.90
20977;DHT22;10647;51.016;3.720;2022-12-07T10:11:57;8.80;99.90
20977;DHT22;10647;51.016;3.720;2022-12-07T10:14:13;8.80;99.90
20977;DHT22;10647;51.016;3.720;2022-12-07T10:16:42;8.80;99.90
20977;DHT22;10647;51.016;3.720;2022-12-07T10:22:05;8.90;99.90
20977;DHT22;10647;51.016;3.720;2022-12-07T10:24:32;8.90;99.90
20977;DHT22;10647;51.016;3.720;2022-12-07T10:26:59;8.90;99.90
20977;DHT22;10647;51.016;3.720;2022-12-07T10:29:39;9.00;99.90
20977;DHT22;10647;51.016;3.720;2022-12-07T10:34:46;9.20;99.90
20977;DHT22;10647;51.016;3.720;2022-12-07T10:37:18;9.30;99.90
20977;DHT22;10647;51.016;3.720;2022-12-07T10:39:51;9.40;99.90
20977;DHT22;10647;51.016;3.720;2022-12-07T10:42:39;9.40;99.90
20977;DHT22;10647;51.016;3.720;2022-12-07T10:50:47;9.90;99.90
20977;DHT22;10647;51.016;3.720;2022-12-07T10:56:13;10.20;99.90
20977;DHT22;10647;51.016;3.720;2022-12-07T11:10:40;9.50;99.90
20977;DHT22;10647;51.016;3.720;2022-12-07T11:13:21;9.40;99.90
20977;DHT22;10647;51.016;3.720;2022-12-07T11:16:06;9.30;99.90
20977;DHT22;10647;51.016;3.720;2022-12-07T11:18:51;9.30;99.90
20977;DHT22;10647;51.016;3.720;2022-12-07T11:24:19;9.50;99.90
20977;DHT22;10647;51.016;3.720;2022-12-07T11:38:35;9.90;99.90
20977;DHT22;10647;51.016;3.720;2022-12-07T11:41:02;9.80;99.90
20977;DHT22;10647;51.016;3.720;2022-12-07T11:43:34;9.90;99.90
20977;DHT22;10647;51.016;3.720;2022-12-07T11:46:08;10.00;99.90
20977;DHT22;10647;51.016;3.720;2022-12-07T11:48:55;10.10;99.90
20977;DHT22;10647;51.016;3.720;2022-12-07T11:51:21;10.50;99.90
20977;DHT22;10647;51.016;3.720;2022-12-07T11:56:38;11.10;99.90
20977;DHT22;10647;51.016;3.720;2022-12-07T11:59:15;11.20;99.90
20977;DHT22;10647;51.016;3.720;2022-12-07T12:07:34;11.50;99.90
20977;DHT22;10647;51.016;3.720;2022-12-07T12:10:06;11.60;99.90
20977;DHT22;10647;51.016;3.720;2022-12-07T12:18:25;11.10;99.90
20977;DHT22;10647;51.016;3.720;2022-12-07T12:21:04;10.80;99.90
20977;DHT22;10647;51.016;3.720;2022-12-07T12:23:50;10.60;99.90
20977;DHT22;10647;51.016;3.720;2022-12-07T12:32:18;9.90;99.90
20977;DHT22;10647;51.016;3.720;2022-12-07T12:35:00;9.80;99.90
20977;DHT22;10647;51.016;3.720;2022-12-07T12:37:41;9.80;99.90
20977;DHT22;10647;51.016;3.720;2022-12-07T12:42:51;9.80;99.90
20977;DHT22;10647;51.016;3.720;2022-12-07T12:45:29;9.90;99.90
20977;DHT22;10647;51.016;3.720;2022-12-07T12:50:48;10.30;99.90
20977;DHT22;10647;51.016;3.720;2022-12-07T12:53:24;10.60;99.90
20977;DHT22;10647;51.016;3.720;2022-12-07T12:58:42;10.80;99.90
20977;DHT22;10647;51.016;3.720;2022-12-07T13:01:39;10.90;99.90
20977;DHT22;10647;51.016;3.720;2022-12-07T13:04:28;10.90;99.90
20977;DHT22;10647;51.016;3.720;2022-12-07T13:06:58;11.00;99.90
20977;DHT22;10647;51.016;3.720;2022-12-07T13:09:27;11.30;99.90
20977;DHT22;10647;51.016;3.720;2022-12-07T13:23:09;11.50;99.90
20977;DHT22;10647;51.016;3.720;2022-12-07T13:28:20;11.40;99.90
20977;DHT22;10647;51.016;3.720;2022-12-07T13:30:58;11.20;99.90
20977;DHT22;10647;51.016;3.720;2022-12-07T13:33:17;11.20;99.90
20977;DHT22;10647;51.016;3.720;2022-12-07T13:35:46;11.20;99.90
20977;DHT22;10647;51.016;3.720;2022-12-07T13:38:31;11.20;99.90
20977;DHT22;10647;51.016;3.720;2022-12-07T13:41:20;11.20;99.90
20977;DHT22;10647;51.016;3.720;2022-12-07T13:47:16;11.00;99.90
20977;DHT22;10647;51.016;3.720;2022-12-07T13:49:50;10.80;99.90
20977;DHT22;10647;51.016;3.720;2022-12-07T13:52:29;10.80;99.90
20977;DHT22;10647;51.016;3.720;2022-12-07T13:55:20;11.00;99.90
20977;DHT22;10647;51.016;3.720;2022-12-07T14:00:41;11.40;99.90
20977;DHT22;10647;51.016;3.720;2022-12-07T14:06:21;11.30;99.90
20977;DHT22;10647;51.016;3.720;2022-12-07T14:08:45;11.20;99.90
20977;DHT22;10647;51.016;3.720;2022-12-07T14:11:18;11.00;99.90
20977;DHT22;10647;51.016;3.720;2022-12-07T14:14:00;10.80;99.90
20977;DHT22;10647;51.016;3.720;2022-12-07T14:25:22;10.30;99.90
20977;DHT22;10647;51.016;3.720;2022-12-07T14:27:57;10.10;99.90
20977;DHT22;10647;51.016;3.720;2022-12-07T14:30:30;10.00;99.90
20977;DHT22;10647;51.016;3.720;2022-12-07T14:33:18;9.90;99.90
20977;DHT22;10647;51.016;3.720;2022-12-07T14:35:46;9.80;99.90
20977;DHT22;10647;51.016;3.720;2022-12-07T14:38:14;9.80;99.90
20977;DHT22;10647;51.016;3.720;2022-12-07T14:40:42;9.70;99.90
20977;DHT22;10647;51.016;3.720;2022-12-07T14:43:12;9.80;99.90
20977;DHT22;10647;51.016;3.720;2022-12-07T14:45:40;9.90;99.90
20977;DHT22;10647;51.016;3.720;2022-12-07T14:48:11;9.90;99.90
20977;DHT22;10647;51.016;3.720;2022-12-07T14:50:51;9.90;99.90
20977;DHT22;10647;51.016;3.720;2022-12-07T14:53:21;9.90;99.90
20977;DHT22;10647;51.016;3.720;2022-12-07T14:55:49;9.90;99.90
20977;DHT22;10647;51.016;3.720;2022-12-07T14:58:36;10.00;99.90
20977;DHT22;10647;51.016;3.720;2022-12-07T15:01:03;10.00;99.90
20977;DHT22;10647;51.016;3.720;2022-12-07T15:03:31;9.90;99.90
20977;DHT22;10647;51.016;3.720;2022-12-07T15:06:00;9.90;99.90
20977;DHT22;10647;51.016;3.720;2022-12-07T15:08:30;9.90;99.90
20977;DHT22;10647;51.016;3.720;2022-12-07T15:11:03;9.80;99.90
20977;DHT22;10647;51.016;3.720;2022-12-07T15:13:34;9.80;99.90
20977;DHT22;10647;51.016;3.720;2022-12-07T15:16:20;9.70;99.90
20977;DHT22;10647;51.016;3.720;2022-12-07T15:18:49;9.50;99.90
20977;DHT22;10647;51.016;3.720;2022-12-07T15:21:17;9.30;99.90
20977;DHT22;10647;51.016;3.720;2022-12-07T15:23:46;9.10;99.90
20977;DHT22;10647;51.016;3.720;2022-12-07T15:26:17;8.90;99.90
20977;DHT22;10647;51.016;3.720;2022-12-07T15:28:45;8.80;99.90
20977;DHT22;10647;51.016;3.720;2022-12-07T15:31:14;8.70;99.90
20977;DHT22;10647;51.016;3.720;2022-12-07T15:33:43;8.60;99.90
20977;DHT22;10647;51.016;3.720;2022-12-07T15:36:18;8.50;99.90
20977;DHT22;10647;51.016;3.720;2022-12-07T15:38:44;8.40;99.90
20977;DHT22;10647;51.016;3.720;2022-12-07T15:41:12;8.30;99.90
20977;DHT22;10647;51.016;3.720;2022-12-07T15:43:39;8.20;99.90
20977;DHT22;10647;51.016;3.720;2022-12-07T15:46:32;8.20;99.90
20977;DHT22;10647;51.016;3.720;2022-12-07T15:49:01;8.10;99.90
20977;DHT22;10647;51.016;3.720;2022-12-07T15:51:29;8.00;99.90
20977;DHT22;10647;51.016;3.720;2022-12-07T15:53:58;7.90;99.90
20977;DHT22;10647;51.016;3.720;2022-12-07T15:56:25;7.90;99.90
20977;DHT22;10647;51.016;3.720;2022-12-07T15:59:12;7.90;99.90
20977;DHT22;10647;51.016;3.720;2022-12-07T16:01:42;7.90;99.90
20977;DHT22;10647;51.016;3.720;2022-12-07T16:04:10;7.90;99.90
20977;DHT22;10647;51.016;3.720;2022-12-07T16:06:57;7.90;99.90
20977;DHT22;10647;51.016;3.720;2022-12-07T16:09:24;7.90;99.90
20977;DHT22;10647;51.016;3.720;2022-12-07T16:11:55;7.90;99.90
20977;DHT22;10647;51.016;3.720;2022-12-07T16:14:24;7.90;99.90
20977;DHT22;10647;51.016;3.720;2022-12-07T16:16:52;7.80;99.90
20977;DHT22;10647;51.016;3.720;2022-12-07T16:19:20;7.70;99.90
20977;DHT22;10647;51.016;3.720;2022-12-07T16:21:47;7.70;99.90
20977;DHT22;10647;51.016;3.720;2022-12-07T16:24:15;7.70;99.90
20977;DHT22;10647;51.016;3.720;2022-12-07T16:26:44;7.70;99.90
20977;DHT22;10647;51.016;3.720;2022-12-07T16:29:12;7.70;99.90
20977;DHT22;10647;51.016;3.720;2022-12-07T16:31:40;7.70;99.90
20977;DHT22;10647;51.016;3.720;2022-12-07T16:34:08;7.60;99.90
20977;DHT22;10647;51.016;3.720;2022-12-07T16:36:38;7.60;99.90
20977;DHT22;10647;51.016;3.720;2022-12-07T16:39:06;7.50;99.90
20977;DHT22;10647;51.016;3.720;2022-12-07T16:41:33;7.50;99.90
20977;DHT22;10647;51.016;3.720;2022-12-07T16:44:06;7.50;99.90
20977;DHT22;10647;51.016;3.720;2022-12-07T16:46:35;7.40;99.90
20977;DHT22;10647;51.016;3.720;2022-12-07T16:49:04;7.50;99.90
20977;DHT22;10647;51.016;3.720;2022-12-07T16:51:51;7.60;99.90
20977;DHT22;10647;51.016;3.720;2022-12-07T16:54:20;7.70;99.90
20977;DHT22;10647;51.016;3.720;2022-12-07T16:56:48;7.70;99.90
20977;DHT22;10647;51.016;3.720;2022-12-07T16:59:18;7.70;99.90
20977;DHT22;10647;51.016;3.720;2022-12-07T17:01:46;7.80;99.90
20977;DHT22;10647;51.016;3.720;2022-12-07T17:04:14;7.80;99.90
20977;DHT22;10647;51.016;3.720;2022-12-07T17:06:42;7.90;99.90
20977;DHT22;10647;51.016;3.720;2022-12-07T17:09:09;7.90;99.90
20977;DHT22;10647;51.016;3.720;2022-12-07T17:11:38;7.80;99.90
20977;DHT22;10647;51.016;3.720;2022-12-07T17:14:06;7.80;99.90
20977;DHT22;10647;51.016;3.720;2022-12-07T17:16:52;7.80;99.90
20977;DHT22;10647;51.016;3.720;2022-12-07T17:19:19;7.80;99.90
20977;DHT22;10647;51.016;3.720;2022-12-07T17:21:47;7.90;99.90
20977;DHT22;10647;51.016;3.720;2022-12-07T17:24:18;7.90;99.90
20977;DHT22;10647;51.016;3.720;2022-12-07T17:26:47;7.90;99.90
20977;DHT22;10647;51.016;3.720;2022-12-07T17:29:16;7.90;99.90
20977;DHT22;10647;51.016;3.720;2022-12-07T17:31:50;7.90;99.90
20977;DHT22;10647;51.016;3.720;2022-12-07T17:34:18;7.90;99.90
20977;DHT22;10647;51.016;3.720;2022-12-07T17:36:49;7.90;99.90
20977;DHT22;10647;51.016;3.720;2022-12-07T17:39:22;7.70;99.90
20977;DHT22;10647;51.016;3.720;2022-12-07T17:41:51;7.60;99.90
20977;DHT22;10647;51.016;3.720;2022-12-07T17:44:38;7.50;99.90
20977;DHT22;10647;51.016;3.720;2022-12-07T17:47:06;7.40;99.90
20977;DHT22;10647;51.016;3.720;2022-12-07T17:49:36;7.30;99.90
20977;DHT22;10647;51.016;3.720;2022-12-07T17:52:03;7.20;99.90
20977;DHT22;10647;51.016;3.720;2022-12-07T17:54:49;7.10;99.90
20977;DHT22;10647;51.016;3.720;2022-12-07T17:57:17;7.10;99.90
20977;DHT22;10647;51.016;3.720;2022-12-07T17:59:45;7.00;99.90
20977;DHT22;10647;51.016;3.720;2022-12-07T18:02:32;6.90;99.90
20977;DHT22;10647;51.016;3.720;2022-12-07T18:04:59;6.90;99.90
20977;DHT22;10647;51.016;3.720;2022-12-07T18:07:29;6.80;99.90
20977;DHT22;10647;51.016;3.720;2022-12-07T18:09:56;6.80;99.90
20977;DHT22;10647;51.016;3.720;2022-12-07T18:12:24;6.80;99.90
20977;DHT22;10647;51.016;3.720;2022-12-07T18:14:57;6.80;99.90
20977;DHT22;10647;51.016;3.720;2022-12-07T18:17:26;6.90;99.90
20977;DHT22;10647;51.016;3.720;2022-12-07T18:19:53;6.90;99.90
20977;DHT22;10647;51.016;3.720;2022-12-07T18:22:21;6.90;99.90
20977;DHT22;10647;51.016;3.720;2022-12-07T18:24:51;6.90;99.90
20977;DHT22;10647;51.016;3.720;2022-12-07T18:27:18;6.90;99.90
20977;DHT22;10647;51.016;3.720;2022-12-07T18:29:46;6.90;99.90
20977;DHT22;10647;51.016;3.720;2022-12-07T18:32:15;6.90;99.90
20977;DHT22;10647;51.016;3.720;2022-12-07T18:34:43;7.00;99.90
20977;DHT22;10647;51.016;3.720;2022-12-07T18:37:10;7.00;99.90